Time;durP1;ratioP1;P1;durP2;ratioP2;P2;SDS_P1;SDS_P2;PMS_P1;PMS_P2;Temp;Humidity;BMP_temperature;BMP_pressure;BME280_temperature;BME280_humidity;BME280_pressure;Samples;Min_cycle;Max_cycle;Signal;HPM_P1;HPM_P2
2023/01/07 00:00:27;;;;;;;;;23.50;19.75;;;;;8.52;63.80;101837.37;146619;577;46020;-69
2023/01/07 00:03:29;;;;;;;;;22.25;20.00;;;;;8.54;64.27;101834.91;146615;600;46017;-70
2023/01/07 00:06:32;;;;;;;;;18.25;16.25;;;;;8.51;64.78;101835.56;146704;571;46014;-68
2023/01/07 00:09:31;;;;;;;;;15.00;14.75;;;;;8.53;63.91;101831.41;146613;572;48944;-68
2023/01/07 00:12:32;;;;;;;;;22.25;18.50;;;;;8.51;63.94;101842.44;146615;615;46021;-68
2023/01/07 00:15:48;;;;;;;;;19.50;17.00;;;;;8.48;63.89;101848.25;146614;590;46033;-68
2023/01/07 00:18:57;;;;;;;;;18.00;18.00;;;;;8.42;63.52;101846.87;146616;573;46021;-68
2023/01/07 00:21:53;;;;;;;;;20.00;15.00;;;;;8.39;63.90;101846.66;146611;629;46917;-69
2023/01/07 00:25:02;;;;;;;;;22.75;19.25;;;;;8.37;64.15;101850.75;146614;567;46020;-69
2023/01/07 00:28:02;;;;;;;;;25.75;23.25;;;;;8.34;64.62;101844.56;146612;611;46016;-68
2023/01/07 00:31:09;;;;;;;;;26.00;23.25;;;;;8.37;64.46;101859.41;146615;584;46020;-68
2023/01/07 00:34:08;;;;;;;;;20.50;15.00;;;;;8.33;64.76;101858.25;146612;616;46012;-68
2023/01/07 00:37:48;;;;;;;;;17.50;17.00;;;;;8.25;65.58;101853.28;146703;564;46022;-68
2023/01/07 00:40:16;;;;;;;;;16.25;14.00;;;;;8.21;64.93;101844.38;146619;596;46018;-69
2023/01/07 00:43:34;;;;;;;;;23.50;22.75;;;;;8.24;65.36;101842.03;146623;583;45020;-68
2023/01/07 00:46:30;;;;;;;;;30.75;24.25;;;;;8.23;66.60;101844.53;146619;611;46012;-68
2023/01/07 00:49:27;;;;;;;;;23.50;21.75;;;;;8.20;67.16;101846.87;146617;612;46020;-69
2023/01/07 00:52:08;;;;;;;;;19.50;18.75;;;;;8.12;68.65;101838.50;146703;572;45023;-69
2023/01/07 00:55:14;;;;;;;;;;;;;;;;;;;;;
2023/01/07 00:58:19;;;;;;;;;24.25;17.25;;;;;8.08;67.60;101839.94;146621;609;46010;-66
2023/01/07 01:01:18;;;;;;;;;22.00;20.75;;;;;8.07;67.72;101837.25;146614;576;46012;-67
2023/01/07 01:04:19;;;;;;;;;20.75;17.00;;;;;8.04;68.65;101845.66;146622;729;46010;-68
2023/01/07 01:07:13;;;;;;;;;20.75;18.00;;;;;8.01;68.07;101836.75;146618;587;46017;-69
2023/01/07 01:10:26;;;;;;;;;18.25;17.25;;;;;7.89;67.54;101821.19;146622;595;46010;-67
2023/01/07 01:13:22;;;;;;;;;19.75;15.75;;;;;7.94;68.61;101832.75;146618;683;46016;-66
2023/01/07 01:16:21;;;;;;;;;22.75;16.50;;;;;7.93;67.68;101845.56;146620;565;46020;-66
2023/01/07 01:19:16;;;;;;;;;21.75;17.50;;;;;7.87;69.42;101841.72;146618;586;46012;-66
2023/01/07 01:22:17;;;;;;;;;14.75;12.25;;;;;7.79;68.88;101837.63;146619;647;46020;-66
2023/01/07 01:25:36;;;;;;;;;28.50;25.50;;;;;7.74;67.70;101835.47;146618;589;46016;-67
2023/01/07 01:28:43;;;;;;;;;31.75;27.00;;;;;7.87;68.51;101838.22;146618;583;47008;-67
2023/01/07 01:31:39;;;;;;;;;24.75;17.50;;;;;7.96;69.08;101840.66;146615;580;46016;-67
2023/01/07 01:34:36;;;;;;;;;23.50;22.75;;;;;7.97;68.20;101845.03;146623;571;45020;-67
2023/01/07 01:37:31;;;;;;;;;17.75;16.25;;;;;8.02;67.41;101843.72;146616;576;46016;-69
2023/01/07 01:40:23;;;;;;;;;18.50;14.25;;;;;8.03;66.94;101842.94;146619;701;46020;-69
2023/01/07 01:43:38;;;;;;;;;14.50;13.00;;;;;7.95;65.63;101831.13;146615;570;46017;-68
2023/01/07 01:46:51;;;;;;;;;17.00;13.50;;;;;7.91;66.21;101847.13;146618;611;46010;-68
2023/01/07 01:49:55;;;;;;;;;17.75;15.25;;;;;7.84;66.74;101838.88;146618;616;46012;-68
2023/01/07 01:53:15;;;;;;;;;15.50;13.00;;;;;7.80;65.71;101830.78;146611;566;46021;-69
2023/01/07 01:56:30;;;;;;;;;15.00;13.50;;;;;7.77;66.40;101846.94;146608;591;46016;-67
2023/01/07 01:59:31;;;;;;;;;15.75;14.00;;;;;7.70;66.80;101838.59;146618;573;46011;-66
2023/01/07 02:02:41;;;;;;;;;15.50;13.25;;;;;7.64;66.30;101824.41;146608;607;46016;-66
2023/01/07 02:05:47;;;;;;;;;11.00;10.00;;;;;7.67;67.05;101838.34;146617;575;45043;-66
2023/01/07 02:08:39;;;;;;;;;10.00;9.00;;;;;6.43;67.02;101626.31;146605;681;46012;-67
2023/01/07 02:12:03;;;;;;;;;17.00;12.25;;;;;7.56;66.76;101838.34;146621;593;46020;-67
2023/01/07 02:15:39;;;;;;;;;9.75;8.50;;;;;7.50;66.47;101839.53;146608;571;46017;-65
2023/01/07 02:19:15;;;;;;;;;11.75;9.75;;;;;7.41;66.70;101837.09;146622;612;46020;-66
2023/01/07 02:22:49;;;;;;;;;11.00;9.75;;;;;7.33;67.54;101826.16;146615;617;46016;-69
2023/01/07 02:26:21;;;;;;;;;9.25;8.25;;;;;6.65;66.47;101729.47;146620;597;46030;-69
2023/01/07 02:29:54;;;;;;;;;8.25;7.50;;;;;7.20;66.61;101837.94;146615;575;46012;-68
2023/01/07 02:33:30;;;;;;;;;8.50;7.00;;;;;7.06;66.97;101822.22;146618;598;46020;-68
2023/01/07 02:37:03;;;;;;;;;14.25;8.00;;;;;7.09;67.47;101819.00;146611;592;46017;-67
2023/01/07 02:40:25;;;;;;;;;11.00;10.00;;;;;7.09;67.42;101830.22;146621;614;46020;-67
2023/01/07 02:43:55;;;;;;;;;9.25;8.75;;;;;7.09;67.45;101830.22;146608;594;47914;-67
2023/01/07 02:47:39;;;;;;;;;10.00;7.75;;;;;7.11;66.98;101822.59;146624;610;46010;-65
2023/01/07 02:50:37;;;;;;;;;11.50;8.50;;;;;7.13;67.40;101826.19;146618;617;46018;-66
2023/01/07 02:53:40;;;;;;;;;8.00;8.00;;;;;7.12;67.57;101822.72;146629;594;46020;-65
2023/01/07 02:57:12;;;;;;;;;12.75;9.00;;;;;7.13;66.76;101823.63;146624;620;46016;-67
2023/01/07 03:00:49;;;;;;;;;8.50;7.50;;;;;7.03;66.96;101819.38;146629;596;46020;-68
2023/01/07 03:04:20;;;;;;;;;9.00;7.00;;;;;7.07;67.36;101826.63;146621;670;46915;-69
2023/01/07 03:07:42;;;;;;;;;9.75;7.75;;;;;7.08;67.30;101819.78;146627;632;46014;-70
2023/01/07 03:11:01;;;;;;;;;8.00;6.25;;;;;7.11;67.66;101820.94;146627;667;46012;-69
2023/01/07 03:14:22;;;;;;;;;7.00;7.00;;;;;7.11;68.55;101831.25;146627;660;46021;-69
2023/01/07 03:17:30;;;;;;;;;9.75;8.25;;;;;7.09;68.63;101831.88;146624;649;46012;-70
2023/01/07 03:20:31;;;;;;;;;8.75;7.00;;;;;7.08;68.48;101830.09;146630;584;46014;-69
2023/01/07 03:23:29;;;;;;;;;7.50;5.25;;;;;7.11;67.97;101832.94;146624;575;46016;-71
2023/01/07 03:26:45;;;;;;;;;7.00;6.75;;;;;7.10;66.85;101815.63;146630;613;46020;-71
2023/01/07 03:29:41;;;;;;;;;5.50;5.50;;;;;7.21;67.35;101830.31;146623;689;46019;-71
2023/01/07 03:32:57;;;;;;;;;7.00;6.75;;;;;7.26;66.56;101833.25;146625;579;46020;-70
2023/01/07 03:36:02;;;;;;;;;5.00;5.00;;;;;7.33;66.40;101830.44;146621;594;46017;-69
2023/01/07 03:39:15;;;;;;;;;7.00;5.25;;;;;7.40;66.84;101827.56;146627;659;46014;-69
2023/01/07 03:45:43;;;;;;;;;9.25;7.50;;;;;7.42;67.00;101836.34;146629;614;46020;-66
2023/01/07 03:48:41;;;;;;;;;12.00;10.25;;;;;7.33;67.10;101833.91;146618;618;46016;-67
2023/01/07 03:51:33;;;;;;;;;10.00;8.00;;;;;7.36;67.61;101838.44;146613;662;46021;-67
2023/01/07 03:54:29;;;;;;;;;7.75;6.50;;;;;7.34;67.92;101837.37;146614;569;46016;-67
2023/01/07 03:57:21;;;;;;;;;12.00;11.75;;;;;7.33;68.38;101841.66;146618;592;46021;-66
2023/01/07 04:00:20;;;;;;;;;11.00;9.00;;;;;7.34;68.31;101845.12;146613;564;46016;-68
2023/01/07 04:03:13;;;;;;;;;8.75;8.00;;;;;7.36;68.57;101846.16;146620;581;46020;-67
2023/01/07 04:06:10;;;;;;;;;9.25;7.75;;;;;7.38;68.40;101845.53;146616;624;46017;-67
2023/01/07 04:08:50;;;;;;;;;9.25;6.75;;;;;7.33;70.38;101840.75;146697;564;46014;-67
2023/01/07 04:11:45;;;;;;;;;8.50;7.00;;;;;7.33;69.00;101844.22;146620;601;46012;-66
2023/01/07 04:14:39;;;;;;;;;7.75;5.75;;;;;7.29;69.47;101847.34;146622;572;46010;-68
2023/01/07 04:17:36;;;;;;;;;7.00;7.00;;;;;7.26;68.88;101848.75;146619;600;46016;-70
2023/01/07 04:20:32;;;;;;;;;10.00;8.25;;;;;7.26;68.94;101848.75;146618;578;46020;-69
2023/01/07 04:23:30;;;;;;;;;7.25;6.50;;;;;7.32;68.84;101855.34;146619;564;46017;-68
2023/01/07 04:26:22;;;;;;;;;11.25;7.00;;;;;7.41;68.91;101865.47;146619;563;46014;-68
2023/01/07 04:29:18;;;;;;;;;9.75;6.25;;;;;7.49;68.33;101867.03;146620;576;46014;-69
2023/01/07 04:32:13;;;;;;;;;7.25;7.25;;;;;7.53;68.89;101863.91;146621;598;45050;-66
2023/01/07 04:35:21;;;;;;;;;6.00;5.25;;;;;7.58;68.57;101864.31;146618;618;46012;-66
2023/01/07 04:38:13;;;;;;;;;9.75;8.75;;;;;7.57;68.65;101865.97;146622;618;46010;-66
2023/01/07 04:41:14;;;;;;;;;10.00;8.25;;;;;7.51;68.57;101862.00;146615;572;46912;-66
2023/01/07 04:44:18;;;;;;;;;9.00;8.00;;;;;7.47;68.17;101867.66;146622;570;46011;-68
2023/01/07 04:47:21;;;;;;;;;12.25;9.50;;;;;7.43;68.32;101863.03;146617;656;46016;-69
2023/01/07 04:50:25;;;;;;;;;14.00;9.00;;;;;7.37;68.90;101861.75;146618;598;45020;-68
2023/01/07 04:53:31;;;;;;;;;15.50;14.50;;;;;7.30;68.59;101864.63;146616;684;46016;-69
2023/01/07 04:56:35;;;;;;;;;14.25;12.50;;;;;7.27;68.46;101882.44;146620;605;46014;-70
2023/01/07 04:59:32;;;;;;;;;15.00;12.00;;;;;7.22;68.42;101881.13;146613;564;46913;-71
2023/01/07 05:02:29;;;;;;;;;13.75;11.25;;;;;7.18;67.98;101879.97;146617;622;46010;-70
2023/01/07 05:05:24;;;;;;;;;11.25;9.75;;;;;7.14;68.52;101883.09;146617;581;46015;-69
2023/01/07 05:08:29;;;;;;;;;10.50;7.25;;;;;7.02;69.43;101882.06;146621;605;46010;-69
2023/01/07 05:11:28;;;;;;;;;8.00;8.00;;;;;6.91;69.25;101880.25;146617;632;46016;-69
2023/01/07 05:14:22;;;;;;;;;8.75;8.00;;;;;6.83;69.42;101884.78;146623;663;46014;-67
2023/01/07 05:17:17;;;;;;;;;6.75;6.00;;;;;6.77;69.95;101888.50;146617;656;47012;-67
2023/01/07 05:20:31;;;;;;;;;9.75;9.00;;;;;6.70;69.67;101890.56;146621;667;46010;-70
2023/01/07 05:23:24;;;;;;;;;8.75;7.25;;;;;6.61;69.23;101896.59;146620;652;46012;-68
2023/01/07 05:26:16;;;;;;;;;9.25;6.50;;;;;6.57;69.72;101897.09;146622;657;46010;-68
2023/01/07 05:29:22;;;;;;;;;8.00;7.50;;;;;6.45;69.98;101896.97;146615;564;46017;-68
2023/01/07 05:32:14;;;;;;;;;8.50;8.00;;;;;5.04;70.93;101653.00;146620;653;46020;-68
2023/01/07 05:34:55;;;;;;;;;6.00;6.00;;;;;6.33;73.72;101896.81;146707;570;46015;-68
2023/01/07 05:37:50;;;;;;;;;10.00;7.00;;;;;6.30;72.25;101905.94;146623;643;45016;-68
2023/01/07 05:40:54;;;;;;;;;11.50;8.75;;;;;6.27;71.62;101909.16;146626;709;46010;-68
2023/01/07 05:43:46;;;;;;;;;11.00;7.00;;;;;6.25;71.88;101906.41;146620;597;46014;-68
2023/01/07 05:46:38;;;;;;;;;11.00;9.00;;;;;6.25;71.45;101908.09;146625;578;46010;-68
2023/01/07 05:49:36;;;;;;;;;7.00;6.25;;;;;6.28;72.01;101910.03;146621;584;46016;-67
2023/01/07 05:52:24;;;;;;;;;11.25;9.25;;;;;6.28;73.78;101912.63;146703;571;46012;-68
2023/01/07 05:55:19;;;;;;;;;10.25;8.00;;;;;6.29;72.52;101917.87;146622;678;46012;-67
2023/01/07 05:58:12;;;;;;;;;10.25;9.75;;;;;6.29;73.19;101922.16;146620;580;46020;-68
2023/01/07 06:01:07;;;;;;;;;12.00;10.00;;;;;6.28;72.53;101908.37;146618;636;46013;-69
2023/01/07 06:03:59;;;;;;;;;10.75;7.50;;;;;6.27;72.42;101913.41;146616;626;46010;-70
2023/01/07 06:07:02;;;;;;;;;9.25;6.50;;;;;6.25;71.81;101919.28;146615;606;46016;-68
2023/01/07 06:09:48;;;;;;;;;9.25;8.25;;;;;6.24;74.66;101919.19;146698;569;46022;-70
2023/01/07 06:12:43;;;;;;;;;8.00;8.00;;;;;6.29;72.90;101915.31;146620;613;46014;-71
2023/01/07 06:15:38;;;;;;;;;10.50;8.00;;;;;6.35;72.35;101921.00;146626;563;46010;-70
2023/01/07 06:18:36;;;;;;;;;10.25;9.00;;;;;6.40;72.35;101919.75;146621;585;46013;-69
2023/01/07 06:21:41;;;;;;;;;10.00;10.00;;;;;6.45;72.07;101923.62;146624;569;45020;-69
2023/01/07 06:24:39;;;;;;;;;11.00;9.00;;;;;6.50;71.90;101931.75;146611;585;47016;-70
2023/01/07 06:27:42;;;;;;;;;;;;;;;;;;;;;
2023/01/07 06:30:39;;;;;;;;;107.67;85.67;;;;;6.68;72.29;101925.59;146621;563;46012;-68
2023/01/07 06:33:45;;;;;;;;;18.00;15.25;;;;;6.74;72.10;101935.53;146622;682;46010;-68
2023/01/07 06:36:40;;;;;;;;;16.75;12.75;;;;;6.75;72.16;101945.06;146615;691;46012;-68
2023/01/07 06:39:40;;;;;;;;;15.75;13.50;;;;;6.88;72.84;101940.19;146615;612;46021;-70
2023/01/07 06:42:41;;;;;;;;;15.25;13.00;;;;;7.57;78.18;101939.91;146618;610;46016;-69
2023/01/07 06:45:27;;;;;;;;;13.00;12.25;;;;;8.58;76.18;101942.94;146709;566;46023;-68
2023/01/07 06:48:39;;;;;;;;;13.25;12.00;;;;;9.49;70.51;101946.50;146619;726;46016;-67
2023/01/07 06:51:46;;;;;;;;;12.00;11.25;;;;;10.27;68.24;101934.94;146623;636;46010;-68
2023/01/07 06:54:41;;;;;;;;;17.25;13.25;;;;;10.90;63.90;101937.66;146619;622;46016;-68
2023/01/07 06:57:43;;;;;;;;;18.00;15.25;;;;;11.40;61.94;101942.81;146624;597;46010;-68
2023/01/07 07:00:37;;;;;;;;;19.25;17.00;;;;;11.87;61.73;101942.50;146618;588;46016;-68
2023/01/07 07:03:26;;;;;;;;;26.50;23.75;;;;;12.43;58.86;101942.63;146705;566;45023;-67
2023/01/07 07:06:23;;;;;;;;;28.00;24.00;;;;;13.10;57.66;101937.19;146620;575;46012;-68
2023/01/07 07:09:22;;;;;;;;;32.25;30.25;;;;;13.68;56.62;101945.87;146622;649;46012;-67
2023/01/07 07:12:19;;;;;;;;;47.00;38.75;;;;;14.35;54.57;101940.06;146616;576;46017;-67
2023/01/07 07:15:27;;;;;;;;;52.00;42.00;;;;;14.88;52.08;101939.50;146622;617;46010;-66
2023/01/07 07:18:25;;;;;;;;;40.75;34.25;;;;;15.28;50.82;101944.19;146616;619;46017;-67
2023/01/07 07:21:18;;;;;;;;;;;;;;;;;;;;;
2023/01/07 07:24:21;;;;;;;;;44.50;34.50;;;;;15.90;48.19;101943.88;146619;624;46017;-68
2023/01/07 07:27:13;;;;;;;;;41.75;33.25;;;;;16.06;47.78;101946.41;146616;583;46010;-67
2023/01/07 07:30:17;;;;;;;;;36.25;32.50;;;;;16.13;47.41;101942.37;146616;633;46016;-67
2023/01/07 07:33:35;;;;;;;;;50.00;39.75;;;;;16.24;49.21;101945.50;146619;592;46020;-67
2023/01/07 07:36:38;;;;;;;;;;;;;;;;;;;;;
2023/01/07 07:39:33;;;;;;;;;45.25;35.25;;;;;16.58;46.60;101959.34;146621;565;46012;-66
2023/01/07 07:42:34;;;;;;;;;40.25;34.50;;;;;16.44;47.83;101952.56;146616;638;45016;-67
2023/01/07 07:45:36;;;;;;;;;;;;;;;;;;;;;
2023/01/07 07:48:46;;;;;;;;;41.25;34.50;;;;;15.82;47.79;101968.75;146608;570;46016;-70
2023/01/07 07:51:55;;;;;;;;;46.25;37.50;;;;;15.41;49.46;101957.06;146619;608;46020;-70
2023/01/07 07:54:51;;;;;;;;;49.00;39.00;;;;;15.20;49.56;101970.84;146620;620;46012;-68
2023/01/07 07:58:04;;;;;;;;;51.25;40.25;;;;;15.12;49.68;101974.75;146621;614;46012;-68
2023/01/07 08:01:20;;;;;;;;;52.00;42.00;;;;;14.92;50.22;101968.50;146617;576;46016;-66
2023/01/07 08:04:19;;;;;;;;;48.75;39.25;;;;;14.69;50.23;101977.66;146621;608;46010;-69
2023/01/07 08:07:15;;;;;;;;;46.25;37.50;;;;;14.57;51.61;101979.59;146617;628;46016;-68
2023/01/07 08:10:17;;;;;;;;;50.25;39.50;;;;;14.52;52.28;101965.44;146616;575;46021;-67
2023/01/07 08:13:22;;;;;;;;;44.50;37.75;;;;;14.63;53.06;101979.06;146618;577;46012;-69
2023/01/07 08:16:15;;;;;;;;;51.25;39.00;;;;;14.69;51.05;101976.78;146620;575;46010;-69
2023/01/07 08:19:24;;;;;;;;;47.75;38.75;;;;;14.69;51.69;101982.87;146617;571;46016;-69
2023/01/07 08:22:05;;;;;;;;;48.25;40.00;;;;;14.70;50.09;101981.16;146709;606;45022;-68
2023/01/07 08:25:08;;;;;;;;;46.00;38.00;;;;;14.71;51.23;101983.00;146619;594;46016;-68
2023/01/07 08:28:17;;;;;;;;;48.50;38.50;;;;;13.28;53.30;101724.72;146622;608;46021;-69
2023/01/07 08:31:26;;;;;;;;;53.00;40.50;;;;;14.87;51.26;101985.63;146618;628;46012;-68
2023/01/07 08:34:21;;;;;;;;;50.25;40.00;;;;;14.93;51.92;101982.44;146622;616;46012;-67
2023/01/07 08:37:18;;;;;;;;;46.50;37.00;;;;;15.06;51.36;101984.88;146618;579;46016;-67
2023/01/07 08:40:24;;;;;;;;;50.25;38.75;;;;;15.17;50.70;101975.91;146623;575;46012;-68
2023/01/07 08:43:18;;;;;;;;;46.50;36.25;;;;;15.16;49.56;101974.09;146616;610;46017;-68
2023/01/07 08:46:13;;;;;;;;;32.00;29.75;;;;;15.14;49.65;101978.34;146623;607;46012;-67
2023/01/07 08:49:08;;;;;;;;;33.25;29.25;;;;;15.09;50.20;101979.81;146617;609;46917;-67
2023/01/07 08:52:15;;;;;;;;;33.50;27.00;;;;;15.11;49.84;101972.97;146621;564;46020;-67
2023/01/07 08:55:43;;;;;;;;;30.25;29.00;;;;;13.72;50.52;101726.28;146618;602;46012;-68
2023/01/07 08:58:29;;;;;;;;;38.50;32.00;;;;;14.00;47.73;101766.88;146709;573;46012;-67
2023/01/07 09:01:23;;;;;;;;;39.00;31.50;;;;;15.33;49.29;101972.37;146620;646;45016;-67
2023/01/07 09:04:18;;;;;;;;;35.75;28.00;;;;;15.52;49.44;101958.53;146619;608;46021;-68
2023/01/07 09:07:18;;;;;;;;;26.50;23.75;;;;;15.66;47.83;101962.72;146619;583;46012;-69
2023/01/07 09:10:19;;;;;;;;;23.25;21.00;;;;;15.69;47.30;101959.41;146621;602;46021;-67
2023/01/07 09:13:13;;;;;;;;;23.50;21.75;;;;;15.71;47.62;101957.75;146619;573;46012;-68
2023/01/07 09:16:14;;;;;;;;;23.75;22.75;;;;;15.79;47.32;101950.28;146713;594;46022;-67
2023/01/07 09:19:06;;;;;;;;;26.25;22.50;;;;;16.00;48.11;101951.34;146613;632;46016;-67
2023/01/07 09:22:01;;;;;;;;;21.75;18.50;;;;;16.23;46.90;101949.84;146615;704;46020;-68
2023/01/07 09:25:00;;;;;;;;;25.00;18.50;;;;;16.42;46.71;101949.00;146612;585;46918;-68
2023/01/07 09:27:53;;;;;;;;;19.25;17.75;;;;;16.55;46.14;101953.09;146612;575;46034;-67
2023/01/07 09:30:51;;;;;;;;;23.00;20.75;;;;;16.66;45.80;101937.84;146613;646;46012;-67
2023/01/07 09:33:56;;;;;;;;;21.25;19.00;;;;;16.69;45.08;101932.75;146615;592;46020;-68
2023/01/07 09:36:56;;;;;;;;;20.75;19.25;;;;;16.70;45.86;101939.78;146613;589;46014;-67
2023/01/07 09:39:54;;;;;;;;;20.75;17.75;;;;;16.71;45.65;101939.88;146617;569;46022;-67
2023/01/07 09:43:11;;;;;;;;;18.25;17.50;;;;;16.70;47.29;101916.19;146608;597;47919;-67
2023/01/07 09:46:12;;;;;;;;;23.75;22.50;;;;;16.79;45.43;101916.66;146618;624;46010;-68
2023/01/07 09:49:09;;;;;;;;;17.50;15.25;;;;;15.69;44.50;101721.44;146611;608;46017;-67
2023/01/07 09:52:35;;;;;;;;;22.25;20.00;;;;;16.78;46.49;101910.53;146616;574;46010;-68
2023/01/07 09:55:36;;;;;;;;;24.00;19.00;;;;;16.81;46.67;101904.53;146611;585;46012;-67
2023/01/07 09:58:34;;;;;;;;;25.50;24.50;;;;;16.90;44.46;101902.31;146618;628;46020;-67
2023/01/07 10:01:57;;;;;;;;;22.00;19.50;;;;;16.98;44.85;101895.72;146614;599;46012;-69
2023/01/07 10:05:23;;;;;;;;;27.00;25.25;;;;;17.02;45.42;101901.97;146614;636;46020;-67
2023/01/07 10:09:10;;;;;;;;;24.75;24.50;;;;;16.98;47.06;101885.22;146611;640;47014;-68
2023/01/07 10:12:51;;;;;;;;;34.50;29.00;;;;;15.97;48.88;101691.31;146617;576;46010;-68
2023/01/07 10:16:01;;;;;;;;;30.75;27.50;;;;;17.15;45.74;101874.56;146610;597;46914;-68
2023/01/07 10:19:52;;;;;;;;;29.25;27.75;;;;;17.16;47.10;101865.88;146614;615;46021;-67
2023/01/07 10:23:17;;;;;;;;;29.50;26.75;;;;;17.31;47.09;101870.03;146611;571;46014;-67
2023/01/07 10:26:38;;;;;;;;;29.00;24.75;;;;;17.28;44.88;101859.41;146615;572;46021;-67
2023/01/07 10:29:56;;;;;;;;;14.50;13.50;;;;;17.29;42.60;101860.34;146611;603;46016;-66
2023/01/07 10:33:04;;;;;;;;;18.75;15.00;;;;;17.33;43.40;101854.37;146614;608;46020;-67
2023/01/07 10:36:43;;;;;;;;;13.50;12.50;;;;;16.27;45.29;101661.28;146616;621;46012;-67
2023/01/07 10:40:11;;;;;;;;;11.75;11.25;;;;;17.37;44.42;101837.94;146619;570;46008;-67
2023/01/07 10:44:01;;;;;;;;;9.50;9.00;;;;;17.44;43.78;101839.06;146611;613;47012;-67
2023/01/07 10:47:35;;;;;;;;;19.75;16.25;;;;;17.49;43.71;101827.94;146621;647;46020;-67
2023/01/07 10:51:23;;;;;;;;;15.25;12.50;;;;;16.47;42.46;101641.16;146611;610;46915;-67
2023/01/07 10:55:06;;;;;;;;;12.25;11.75;;;;;16.50;42.54;101635.19;146613;625;47020;-68
2023/01/07 10:57:58;;;;;;;;;11.25;8.50;;;;;17.64;38.84;101821.53;146614;605;46016;-67
2023/01/07 11:01:31;;;;;;;;;12.00;11.00;;;;;17.63;44.45;101811.88;146624;633;46020;-68
2023/01/07 11:04:24;;;;;;;;;13.00;11.00;;;;;17.69;40.56;101814.72;146613;592;47012;-67
2023/01/07 11:08:07;;;;;;;;;10.75;10.25;;;;;17.80;41.28;101808.22;146615;637;46020;-69
2023/01/07 11:11:31;;;;;;;;;13.00;8.50;;;;;17.85;41.01;101811.94;146614;571;46012;-67
2023/01/07 11:14:31;;;;;;;;;10.75;10.75;;;;;17.88;39.91;101804.19;146621;632;46020;-67
2023/01/07 11:17:54;;;;;;;;;9.50;8.00;;;;;17.94;44.37;101796.53;146612;665;46016;-66
2023/01/07 11:20:57;;;;;;;;;17.50;15.00;;;;;18.16;42.48;101795.63;146623;574;46010;-68
2023/01/07 11:24:02;;;;;;;;;9.00;8.75;;;;;18.32;38.93;101796.19;146610;612;47016;-67
2023/01/07 11:27:05;;;;;;;;;12.75;10.50;;;;;18.43;40.51;101793.09;146622;580;46021;-67
2023/01/07 11:30:28;;;;;;;;;11.00;9.50;;;;;18.61;43.43;101781.47;146612;585;46913;-68
2023/01/07 11:33:42;;;;;;;;;11.50;10.50;;;;;18.66;40.86;101767.66;146622;585;46010;-67
2023/01/07 11:36:49;;;;;;;;;13.75;12.75;;;;;18.70;42.15;101777.44;146613;576;46012;-66
2023/01/07 11:39:41;;;;;;;;;11.25;10.00;;;;;18.78;39.40;101776.81;146617;624;46031;-67
2023/01/07 11:42:50;;;;;;;;;;;;;;;;;;;;;
2023/01/07 11:45:46;;;;;;;;;11.50;11.00;;;;;19.04;38.63;101769.84;146704;569;45034;-66
2023/01/07 11:48:52;;;;;;;;;8.50;6.50;;;;;19.12;39.43;101760.47;146617;718;46016;-67
2023/01/07 11:51:52;;;;;;;;;10.50;8.75;;;;;19.21;40.25;101757.25;146622;638;46011;-67
2023/01/07 11:54:58;;;;;;;;;11.50;10.00;;;;;19.32;40.67;101745.34;146619;616;46012;-67
2023/01/07 11:58:03;;;;;;;;;9.75;9.50;;;;;19.39;40.82;101737.69;146618;593;46020;-66
2023/01/07 12:01:23;;;;;;;;;11.00;10.25;;;;;19.52;39.11;101735.44;146619;601;46012;-68
2023/01/07 12:04:47;;;;;;;;;12.25;12.25;;;;;19.45;41.71;101736.09;146617;624;46020;-66
2023/01/07 12:07:48;;;;;;;;;15.75;15.00;;;;;19.45;38.73;101729.09;146612;668;46916;-68
2023/01/07 12:10:43;;;;;;;;;10.00;9.25;;;;;19.48;38.05;101718.66;146617;566;45020;-68
2023/01/07 12:13:43;;;;;;;;;9.50;8.50;;;;;19.57;38.46;101710.16;146614;606;46015;-67
2023/01/07 12:16:35;;;;;;;;;14.00;12.25;;;;;19.77;37.46;101702.88;146706;563;45023;-68
2023/01/07 12:20:04;;;;;;;;;12.75;11.25;;;;;20.00;39.20;101714.97;146619;663;46016;-69
2023/01/07 12:23:27;;;;;;;;;14.25;13.50;;;;;19.22;40.98;101538.16;146622;649;46013;-65
2023/01/07 12:27:04;;;;;;;;;15.25;12.75;;;;;20.43;40.16;101696.81;146615;598;46016;-67
2023/01/07 12:30:42;;;;;;;;;21.25;20.75;;;;;20.64;38.95;101696.53;146622;625;46020;-68
2023/01/07 12:33:59;;;;;;;;;8.25;8.00;;;;;20.70;37.42;101697.56;146705;567;46014;-67
2023/01/07 12:37:35;;;;;;;;;10.75;9.25;;;;;20.75;37.00;101679.25;146619;679;46016;-66
2023/01/07 12:40:52;;;;;;;;;11.25;11.25;;;;;20.85;35.57;101689.16;146623;630;46019;-67
2023/01/07 12:44:18;;;;;;;;;;;;;;;;;;;;;
2023/01/07 12:47:53;;;;;;;;;14.75;13.00;;;;;20.94;38.89;101680.59;146619;675;46010;-67
2023/01/07 12:50:55;;;;;;;;;13.50;12.50;;;;;20.97;34.76;101678.03;146708;565;45023;-67
2023/01/07 12:54:24;;;;;;;;;11.50;10.50;;;;;20.99;38.24;101682.44;146616;694;46016;-66
2023/01/07 12:57:45;;;;;;;;;14.75;14.50;;;;;21.09;38.28;101678.31;146622;610;46020;-66
2023/01/07 13:01:20;;;;;;;;;18.50;15.75;;;;;20.98;38.66;101682.44;146621;709;46012;-67
2023/01/07 13:04:52;;;;;;;;;23.00;19.00;;;;;19.75;41.94;101486.16;146623;593;46010;-66
2023/01/07 13:08:44;;;;;;;;;15.25;13.00;;;;;20.75;43.04;101680.13;146618;760;46016;-65
2023/01/07 13:15:43;;;;;;;;;15.50;15.50;;;;;20.66;40.00;101679.00;146620;654;46016;-67
2023/01/07 13:18:44;;;;;;;;;18.25;14.75;;;;;20.63;39.17;101679.81;146622;612;46020;-67
2023/01/07 13:21:49;;;;;;;;;21.25;18.75;;;;;20.41;41.09;101641.47;146620;691;46012;-65
2023/01/07 13:25:17;;;;;;;;;17.50;15.25;;;;;20.68;40.99;101674.66;146622;595;46020;-68
2023/01/07 13:28:49;;;;;;;;;;;;;;;;;;;;;
2023/01/07 13:32:32;;;;;;;;;13.50;12.50;;;;;20.77;41.97;101673.13;146625;590;46020;-66
2023/01/07 13:36:07;;;;;;;;;14.00;12.75;;;;;20.80;42.53;101676.72;146619;682;46017;-66
2023/01/07 13:39:43;;;;;;;;;14.75;14.25;;;;;20.70;42.08;101671.22;146621;646;46020;-67
2023/01/07 13:43:30;;;;;;;;;17.00;14.25;;;;;20.78;41.53;101671.41;146619;725;46016;-67
2023/01/07 13:46:34;;;;;;;;;16.00;13.50;;;;;20.87;38.91;101665.44;146622;587;46020;-67
2023/01/07 13:49:43;;;;;;;;;16.25;16.00;;;;;21.01;40.64;101663.16;146619;569;46016;-65
2023/01/07 13:52:42;;;;;;;;;13.50;9.75;;;;;21.10;37.82;101669.53;146620;648;46020;-66
2023/01/07 13:55:49;;;;;;;;;13.00;12.00;;;;;21.25;39.94;101674.28;146621;601;46012;-66
2023/01/07 13:59:03;;;;;;;;;18.50;13.75;;;;;21.26;41.55;101670.78;146621;642;45021;-66
2023/01/07 14:02:20;;;;;;;;;19.00;15.75;;;;;20.94;42.38;101667.41;146619;679;46012;-66
2023/01/07 14:05:41;;;;;;;;;18.25;16.50;;;;;20.72;42.48;101666.00;146623;605;46038;-67
2023/01/07 14:08:40;;;;;;;;;17.75;17.75;;;;;20.59;38.86;101666.50;146620;627;46014;-67
2023/01/07 14:12:15;;;;;;;;;13.75;12.00;;;;;19.40;40.85;101465.03;146623;576;45020;-66
2023/01/07 14:15:35;;;;;;;;;16.00;16.00;;;;;20.50;42.98;101667.16;146618;678;46016;-68
2023/01/07 14:19:13;;;;;;;;;16.75;12.75;;;;;20.44;42.94;101656.47;146622;651;46010;-67
2023/01/07 14:23:11;;;;;;;;;16.00;12.75;;;;;19.36;43.92;101486.84;146617;637;46016;-66
2023/01/07 14:26:54;;;;;;;;;12.25;10.75;;;;;20.25;43.30;101663.87;146622;665;47010;-66
2023/01/07 14:30:22;;;;;;;;;12.00;10.50;;;;;20.14;43.35;101670.59;146622;646;46012;-67
2023/01/07 14:33:21;;;;;;;;;11.00;10.00;;;;;20.05;39.59;101665.06;146707;571;46023;-69
2023/01/07 14:36:35;;;;;;;;;8.25;8.25;;;;;19.83;38.71;101659.22;146620;662;46016;-67
2023/01/07 14:39:47;;;;;;;;;9.67;9.67;;;;;19.56;42.34;101654.03;146628;680;46026;-67
2023/01/07 14:42:48;;;;;;;;;26.75;25.00;;;;;19.31;41.07;101667.28;146620;598;46016;-67